Time;durP1;ratioP1;P1;durP2;ratioP2;P2;SDS_P1;SDS_P2;PMS_P1;PMS_P2;Temp;Humidity;BMP_temperature;BMP_pressure;BME280_temperature;BME280_humidity;BME280_pressure;Samples;Min_cycle;Max_cycle;Signal;HPM_P1;HPM_P2
2022/12/25 00:00:26;;;;;;;26.17;8.02;;;;;;;7.15;100.00;101400.00;5055654;28;20100;-56
2022/12/25 00:02:52;;;;;;;29.15;8.25;;;;;;;7.17;100.00;101397.28;5055759;28;20093;-55
2022/12/25 00:05:18;;;;;;;26.70;8.40;;;;;;;7.18;100.00;101389.28;5054751;28;20020;-55
2022/12/25 00:07:43;;;;;;;29.10;8.15;;;;;;;7.20;100.00;101389.19;5055471;28;20025;-55
2022/12/25 00:10:09;;;;;;;22.75;7.32;;;;;;;7.22;100.00;101384.69;5055073;28;20044;-55
2022/12/25 00:12:35;;;;;;;22.55;7.28;;;;;;;7.22;100.00;101387.31;5054979;28;20029;-55
2022/12/25 00:15:00;;;;;;;29.70;7.85;;;;;;;7.23;100.00;101395.16;5054984;28;20398;-56
2022/12/25 00:17:25;;;;;;;25.52;7.88;;;;;;;7.26;100.00;101394.16;5055409;28;20509;-54
2022/12/25 00:19:51;;;;;;;26.50;7.72;;;;;;;7.27;100.00;101389.72;5054659;28;20033;-54
2022/12/25 00:22:17;;;;;;;25.10;7.65;;;;;;;7.28;100.00;101397.56;5055548;28;20140;-53
2022/12/25 00:24:42;;;;;;;26.63;9.02;;;;;;;7.30;100.00;101393.06;5055234;28;20529;-55
2022/12/25 00:27:08;;;;;;;27.35;7.95;;;;;;;7.32;100.00;101387.69;5054688;28;20083;-55
2022/12/25 00:29:33;;;;;;;23.20;8.18;;;;;;;7.33;100.00;101390.25;5054956;28;20025;-55
2022/12/25 00:31:58;;;;;;;27.90;8.05;;;;;;;7.34;100.00;101385.81;5055320;28;20052;-54
2022/12/25 00:34:24;;;;;;;23.25;7.82;;;;;;;7.36;100.00;101383.91;5053795;28;20032;-56
2022/12/25 00:36:50;;;;;;;28.48;8.50;;;;;;;7.36;100.00;101384.81;5054973;28;20029;-54
2022/12/25 00:39:15;;;;;;;23.67;8.30;;;;;;;7.39;100.00;101384.63;5054422;28;20025;-55
2022/12/25 00:44:25;;;;;;;21.88;8.52;;;;;;;7.44;100.00;101381.72;5053912;28;20035;-55
2022/12/25 00:46:50;;;;;;;24.65;8.38;;;;;;;7.46;100.00;101379.00;5053634;28;20418;-55
2022/12/25 00:49:15;;;;;;;22.55;8.57;;;;;;;7.47;100.00;101386.00;5052553;28;20459;-54
2022/12/25 00:51:40;;;;;;;26.65;8.75;;;;;;;7.48;100.00;101388.56;5054016;28;20041;-55
2022/12/25 00:54:06;;;;;;;24.48;9.00;;;;;;;7.49;100.00;101389.41;5054241;28;20009;-55
2022/12/25 00:56:32;;;;;;;23.67;9.15;;;;;;;7.52;100.00;101383.94;5050771;28;20029;-55
2022/12/25 00:58:58;;;;;;;29.88;8.73;;;;;;;7.51;100.00;101371.66;5041035;28;20025;-55
2022/12/25 01:01:23;;;;;;;28.52;9.45;;;;;;;7.54;100.00;101371.50;5054642;28;20040;-54
2022/12/25 01:03:48;;;;;;;25.27;8.95;;;;;;;7.55;100.00;101374.06;5054199;28;20033;-54
2022/12/25 01:06:14;;;;;;;24.75;9.50;;;;;;;7.57;100.00;101371.34;5053351;28;20536;-55
2022/12/25 01:10:20;;;;;;;26.10;8.82;;;;;;;7.59;100.00;101372.09;5053937;28;20029;-55
2022/12/25 01:11:29;;;;;;;;;;;;;;;7.64;100.00;101366.56;5054027;28;20122;-53
2022/12/25 01:13:54;;;;;;;25.27;8.65;;;;;;;7.64;100.00;101366.56;5054427;28;20306;-55
2022/12/25 01:16:19;;;;;;;28.55;8.88;;;;;;;7.64;100.00;101366.56;5053287;28;20044;-54
2022/12/25 01:18:45;;;;;;;21.33;9.02;;;;;;;7.65;100.00;101368.28;5053800;28;20524;-53
2022/12/25 01:21:15;;;;;;;24.33;9.23;;;;;;;7.65;100.00;101365.63;5054429;28;20025;-55
2022/12/25 01:23:40;;;;;;;29.90;10.05;;;;;;;7.70;100.00;101363.56;5041493;28;20021;-54
2022/12/25 01:26:08;;;;;;;30.42;9.50;;;;;;;7.69;100.00;101370.63;5054341;28;20076;-51
2022/12/25 01:28:34;;;;;;;29.65;9.18;;;;;;;7.70;100.00;101375.00;5054261;28;20537;-52
2022/12/25 01:30:59;;;;;;;20.90;9.30;;;;;;;7.71;100.00;101384.66;5053495;28;20033;-55
2022/12/25 01:33:25;;;;;;;20.60;9.30;;;;;;;7.72;100.00;101383.69;5054042;28;20029;-52
2022/12/25 01:35:50;;;;;;;20.48;8.45;;;;;;;7.73;100.00;101389.84;5053993;28;20100;-53
2022/12/25 01:38:15;;;;;;;23.20;8.95;;;;;;;7.73;100.00;101384.56;5047292;28;20039;-53
2022/12/25 01:40:40;;;;;;;24.67;9.27;;;;;;;7.75;100.00;101393.25;5045735;28;20108;-53
2022/12/25 01:43:30;;;;;;;25.48;9.35;;;;;;;7.77;100.00;101389.56;5053531;28;20471;-53
2022/12/25 01:45:56;;;;;;;;;;;;;;;7.81;100.00;101400.84;5053870;28;20082;-52
2022/12/25 01:48:29;;;;;;;24.58;8.68;;;;;;;7.79;100.00;101402.72;5053241;28;20418;-54
2022/12/25 01:51:00;;;;;;;27.30;9.98;;;;;;;7.79;100.00;101408.00;5053346;28;20033;-52
2022/12/25 01:53:25;;;;;;;25.00;9.40;;;;;;;7.81;100.00;101410.56;5052978;28;20025;-55
2022/12/25 01:55:57;;;;;;;21.20;9.02;;;;;;;7.81;100.00;101410.56;5050001;28;20495;-55
2022/12/25 01:58:23;;;;;;;24.70;10.15;;;;;;;7.83;100.00;101416.59;5033695;28;20109;-55
2022/12/25 02:00:50;;;;;;;25.45;9.75;;;;;;;7.82;100.00;101422.84;5050536;28;20108;-55
2022/12/25 02:03:16;;;;;;;24.90;10.35;;;;;;;7.85;100.00;101414.75;5053554;28;20037;-54
2022/12/25 02:05:42;;;;;;;21.45;9.75;;;;;;;7.85;100.00;101417.41;5052820;28;20028;-55
2022/12/25 02:08:10;;;;;;;25.80;9.48;;;;;;;7.85;100.00;101410.31;5051825;28;20025;-53
2022/12/25 02:10:37;;;;;;;23.63;8.98;;;;;;;7.86;100.00;101413.78;5053066;28;20029;-55
2022/12/25 02:13:03;;;;;;;18.42;9.75;;;;;;;7.85;100.00;101415.59;5053348;28;20021;-55
2022/12/25 02:15:39;;;;;;;24.88;9.23;;;;;;;7.85;100.00;101410.31;5052066;28;20103;-55
2022/12/25 02:18:31;;;;;;;28.02;9.65;;;;;;;7.88;100.00;101419.88;5053258;28;20043;-55
2022/12/25 02:21:34;;;;;;;18.55;9.02;;;;;;;7.88;100.00;101420.72;5043251;28;20087;-54
2022/12/25 02:24:22;;;;;;;24.33;8.93;;;;;;;7.89;100.00;101424.22;5053202;28;20032;-55
2022/12/25 02:26:56;;;;;;;21.13;8.98;;;;;;;7.89;100.00;101425.09;5053174;28;20033;-53
2022/12/25 02:29:46;;;;;;;25.10;9.43;;;;;;;7.89;100.00;101425.09;5053074;28;20033;-55
2022/12/25 02:32:30;;;;;;;;;;;;;;;7.94;100.00;101419.50;5051677;28;20060;-52
2022/12/25 02:35:03;;;;;;;25.80;8.93;;;;;;;7.91;100.00;101417.91;5052252;28;20015;-56
2022/12/25 02:37:59;;;;;;;21.50;9.05;;;;;;;7.92;100.00;101405.53;5053268;28;20437;-53
2022/12/25 02:40:36;;;;;;;20.48;8.50;;;;;;;7.92;100.00;101409.00;5052431;28;20029;-52
2022/12/25 03:08:35;;;;;;;21.67;8.63;;;;;;;7.93;100.00;101363.13;5052798;28;20056;-51
2022/12/25 03:13:51;;;;;;;23.60;9.48;;;;;;;7.92;100.00;101337.59;5052063;28;20032;-52
2022/12/25 03:26:53;;;;;;;17.83;9.60;;;;;;;7.87;100.00;101329.06;5040563;28;20406;-52
2022/12/25 03:27:16;;;;;;;19.85;8.13;;;;;;;7.81;100.00;101321.53;5040807;28;20116;-55
2022/12/25 03:32:39;;;;;;;13.15;6.70;;;;;;;7.75;100.00;101304.19;5052416;28;20043;-56
2022/12/25 03:35:21;;;;;;;;;;;;;;;7.79;100.00;101310.16;5051760;28;20174;-56
2022/12/25 04:36:17;;;;;;;12.05;4.38;;;;;;;7.43;100.00;101302.50;5054793;28;20089;-51
2022/12/25 04:38:43;;;;;;;15.23;5.38;;;;;;;7.44;100.00;101306.88;5054673;28;20056;-54
2022/12/25 04:41:10;;;;;;;10.07;4.70;;;;;;;7.47;100.00;101309.34;5054756;28;20131;-54
2022/12/25 04:43:35;;;;;;;13.18;4.88;;;;;;;7.48;100.00;101306.63;5054184;28;20028;-52
2022/12/25 04:46:01;;;;;;;14.38;5.28;;;;;;;7.50;100.00;101310.03;5054823;28;20090;-52
2022/12/25 04:48:28;;;;;;;11.75;4.15;;;;;;;7.53;100.00;101296.63;5054347;28;20434;-52
2022/12/25 04:50:54;;;;;;;9.27;4.15;;;;;;;7.55;100.00;101289.47;5054416;28;20427;-52
2022/12/25 04:53:19;;;;;;;9.50;4.63;;;;;;;7.56;100.00;101293.81;5048885;28;20059;-53
2022/12/25 04:55:45;;;;;;;11.50;4.05;;;;;;;7.58;100.00;101291.94;5054146;28;20487;-51
2022/12/25 04:58:10;;;;;;;11.48;4.32;;;;;;;7.56;100.00;101301.75;5054535;28;20475;-54
2022/12/25 05:00:36;;;;;;;10.15;3.85;;;;;;;7.57;100.00;101279.66;5053676;28;20029;-53
2022/12/25 05:03:02;;;;;;;10.27;3.63;;;;;;;7.57;100.00;101284.94;5054488;28;20036;-54
2022/12/25 05:05:27;;;;;;;9.80;3.50;;;;;;;7.54;100.00;101282.50;5041134;28;20034;-51
2022/12/25 05:07:53;;;;;;;11.00;3.88;;;;;;;7.54;100.00;101287.78;5053777;28;20025;-54
2022/12/25 05:10:18;;;;;;;9.93;3.78;;;;;;;7.56;100.00;101279.75;5054635;28;20078;-53
2022/12/25 05:12:43;;;;;;;7.22;3.30;;;;;;;7.56;100.00;101280.63;5053564;28;20182;-52
2022/12/25 05:15:09;;;;;;;9.75;3.70;;;;;;;7.58;100.00;101280.53;5054165;28;20041;-52
2022/12/25 05:17:36;;;;;;;12.35;3.58;;;;;;;7.58;100.00;101278.72;5053474;28;20481;-54
2022/12/25 05:20:01;;;;;;;9.13;3.63;;;;;;;7.58;100.00;101283.16;5054384;28;20039;-52
2022/12/25 05:22:27;;;;;;;9.93;3.53;;;;;;;7.59;100.00;101285.72;5054484;28;20108;-55
2022/12/25 05:24:52;;;;;;;10.80;3.67;;;;;;;7.62;100.00;101278.56;5040751;28;20476;-53
2022/12/25 05:27:17;;;;;;;11.43;3.55;;;;;;;7.62;100.00;101265.34;5054040;28;20021;-55
2022/12/25 05:29:42;;;;;;;12.60;3.75;;;;;;;7.64;100.00;101260.81;5053789;28;20025;-56
2022/12/25 05:32:08;;;;;;;6.13;3.22;;;;;;;7.65;100.00;101251.94;5053021;28;20108;-54
2022/12/25 05:34:33;;;;;;;11.25;3.58;;;;;;;7.65;100.00;101239.56;5053909;28;20049;-54
2022/12/25 05:36:58;;;;;;;8.98;3.58;;;;;;;7.67;100.00;101236.84;5053800;28;20021;-55
2022/12/25 05:39:24;;;;;;;5.68;3.20;;;;;;;7.68;100.00;101233.25;5053750;28;20032;-56
2022/12/25 05:41:49;;;;;;;9.15;2.97;;;;;;;7.68;100.00;101247.31;5052442;28;20118;-55
2022/12/25 05:44:15;;;;;;;10.55;3.60;;;;;;;7.68;100.00;101244.69;5053803;28;20055;-55
2022/12/25 05:46:40;;;;;;;8.98;3.15;;;;;;;7.70;100.00;101249.88;5052669;28;20029;-56
2022/12/25 05:49:05;;;;;;;10.25;3.55;;;;;;;7.72;100.00;101248.00;5053414;28;20029;-55
2022/12/25 05:51:31;;;;;;;7.55;3.05;;;;;;;7.71;100.00;101251.56;5053817;28;20028;-55
2022/12/25 05:53:57;;;;;;;7.10;3.20;;;;;;;7.73;100.00;101252.34;5041012;28;20127;-53
2022/12/25 05:56:22;;;;;;;10.63;3.47;;;;;;;7.73;100.00;101249.72;5052719;28;20029;-52
2022/12/25 05:58:48;;;;;;;7.95;3.33;;;;;;;7.75;100.00;101251.31;5053521;28;20129;-54
2022/12/25 06:01:16;;;;;;;10.95;3.40;;;;;;;7.76;100.00;101239.81;5052615;28;20510;-53
2022/12/25 06:03:42;;;;;;;10.85;2.97;;;;;;;7.80;100.00;101239.63;5053404;28;20036;-53
2022/12/25 06:06:07;;;;;;;9.57;2.95;;;;;;;7.81;100.00;101228.09;5053229;28;20029;-55
2022/12/25 06:08:33;;;;;;;8.80;2.95;;;;;;;7.82;100.00;101232.44;5052411;28;20043;-53
2022/12/25 06:11:03;;;;;;;8.48;3.35;;;;;;;7.84;100.00;101231.41;5052135;28;20398;-55
2022/12/25 06:13:28;;;;;;;9.27;3.17;;;;;;;7.85;100.00;101233.13;5053083;28;20052;-55
2022/12/25 06:15:53;;;;;;;7.82;2.97;;;;;;;7.86;100.00;101226.03;5046460;28;20072;-52
2022/12/25 06:18:19;;;;;;;8.35;3.20;;;;;;;7.88;100.00;101222.34;5046499;28;20028;-54
2022/12/25 06:20:44;;;;;;;5.47;2.60;;;;;;;7.89;100.00;101213.50;5052968;28;20029;-51
2022/12/25 06:23:10;;;;;;;7.63;2.53;;;;;;;7.90;100.00;101203.75;5052616;28;20029;-53
2022/12/25 06:25:38;;;;;;;9.95;2.97;;;;;;;7.91;100.00;101201.03;5051727;28;20155;-54
2022/12/25 06:28:04;;;;;;;11.60;3.08;;;;;;;7.93;100.00;101209.72;5052797;28;20029;-55
2022/12/25 06:30:29;;;;;;;5.82;2.60;;;;;;;7.94;100.00;101215.84;5051738;28;20103;-53
2022/12/25 06:32:54;;;;;;;9.63;3.10;;;;;;;7.94;100.00;101210.56;5052920;28;20029;-55
2022/12/25 06:35:19;;;;;;;8.77;2.90;;;;;;;7.94;100.00;101199.97;5052096;28;20578;-53
2022/12/25 06:37:45;;;;;;;8.10;3.53;;;;;;;7.94;100.00;101192.91;5052829;28;20036;-55
2022/12/25 06:40:11;;;;;;;10.98;2.97;;;;;;;7.95;100.00;101189.31;5052360;28;20483;-53
2022/12/25 06:42:37;;;;;;;7.82;2.92;;;;;;;7.97;100.00;101189.22;5052171;28;20110;-52
2022/12/25 06:45:02;;;;;;;12.93;3.13;;;;;;;7.96;100.00;101172.50;5052630;28;20061;-56
2022/12/25 06:47:28;;;;;;;7.53;3.08;;;;;;;7.96;100.00;101177.78;5051689;28;20029;-56
2022/12/25 06:49:53;;;;;;;6.53;2.70;;;;;;;7.97;100.00;101170.69;5052241;28;20032;-53
2022/12/25 06:52:18;;;;;;;8.63;3.13;;;;;;;7.98;100.00;101159.19;5051682;28;20025;-54
2022/12/25 06:54:45;;;;;;;7.90;3.00;;;;;;;8.00;100.00;101145.88;5038667;28;20044;-52
2022/12/25 06:57:10;;;;;;;6.00;3.35;;;;;;;8.00;100.00;101141.41;5052567;28;20079;-52
2022/12/25 06:59:36;;;;;;;10.32;3.92;;;;;;;8.00;100.00;101137.94;5045335;28;20029;-53
2022/12/25 07:02:01;;;;;;;7.32;2.90;;;;;;;8.00;100.00;101136.13;5032823;28;20022;-54
2022/12/25 07:04:34;;;;;;;10.77;3.20;;;;;;;8.01;100.00;101144.91;5040752;28;20086;-51
2022/12/25 07:07:00;;;;;;;12.23;3.50;;;;;;;8.01;100.00;101135.19;5044516;28;20061;-56
2022/12/25 07:09:25;;;;;;;10.43;4.13;;;;;;;8.02;100.00;101136.88;5039468;28;20126;-55
2022/12/25 07:11:51;;;;;;;9.18;3.25;;;;;;;8.03;100.00;101149.16;5050896;28;20486;-56
2022/12/25 07:14:19;;;;;;;7.35;3.20;;;;;;;8.03;100.00;101157.09;5037308;28;20127;-55
2022/12/25 07:16:44;;;;;;;10.77;3.45;;;;;;;8.03;100.00;101151.81;5045975;28;20432;-56
2022/12/25 07:19:10;;;;;;;8.88;3.38;;;;;;;8.03;100.00;101154.47;5043715;28;20046;-56
2022/12/25 07:21:35;;;;;;;11.52;3.80;;;;;;;8.04;100.00;101160.59;5046004;28;20045;-56
2022/12/25 07:24:00;;;;;;;7.60;3.25;;;;;;;8.04;100.00;101168.53;5045451;28;20075;-56
2022/12/25 07:26:26;;;;;;;8.95;3.30;;;;;;;8.06;100.00;101179.88;5050485;28;20025;-55
2022/12/25 07:28:51;;;;;;;10.30;3.25;;;;;;;8.07;100.00;101184.22;5047980;28;20076;-56
2022/12/25 07:31:17;;;;;;;7.10;3.25;;;;;;;8.06;100.00;101188.66;5046727;28;20078;-56
2022/12/25 07:33:43;;;;;;;8.52;3.35;;;;;;;8.05;100.00;101186.97;5046921;28;20044;-55
2022/12/25 07:36:10;;;;;;;12.23;3.63;;;;;;;8.07;100.00;101186.88;5042153;28;20123;-54
2022/12/25 07:38:35;;;;;;;8.15;3.15;;;;;;;8.07;100.00;101177.13;5044621;28;20127;-57
2022/12/25 07:41:00;;;;;;;9.27;3.25;;;;;;;8.07;100.00;101163.91;5047478;28;20128;-55
2022/12/25 07:43:26;;;;;;;6.90;3.00;;;;;;;8.07;100.00;101145.38;5048296;28;20052;-56
2022/12/25 07:45:56;;;;;;;8.05;3.05;;;;;;;8.08;100.00;101135.66;5047247;28;20061;-55
2022/12/25 07:48:22;;;;;;;8.38;3.10;;;;;;;8.07;100.00;101148.03;5042862;28;20029;-56
2022/12/25 07:50:47;;;;;;;6.28;2.75;;;;;;;8.07;100.00;101163.91;5048459;28;20033;-55
2022/12/25 07:53:12;;;;;;;6.40;3.00;;;;;;;8.08;100.00;101170.06;5047247;28;20060;-55
2022/12/25 07:55:37;;;;;;;13.10;3.10;;;;;;;8.07;100.00;101171.84;5045949;28;20037;-55
2022/12/25 07:58:03;;;;;;;7.90;3.40;;;;;;;8.08;100.00;101181.47;5046322;28;20426;-56
2022/12/25 08:00:31;;;;;;;8.93;3.03;;;;;;;8.07;100.00;101192.16;5046490;28;20041;-55
2022/12/25 08:02:57;;;;;;;7.20;3.13;;;;;;;8.09;100.00;101211.44;5046979;28;20032;-55
2022/12/25 08:05:22;;;;;;;7.13;3.33;;;;;;;8.08;100.00;101207.94;5051756;28;20119;-56
2022/12/25 08:07:51;;;;;;;6.97;3.03;;;;;;;8.08;100.00;101207.94;5049840;28;20519;-55
2022/12/25 08:10:17;;;;;;;9.98;3.47;;;;;;;8.09;100.00;101203.50;5048801;28;20159;-53
2022/12/25 08:12:42;;;;;;;6.18;2.88;;;;;;;8.09;100.00;101224.66;5052388;28;20606;-55
2022/12/25 08:15:08;;;;;;;7.82;3.08;;;;;;;8.07;100.00;101230.03;5042449;28;20067;-52
2022/12/25 08:17:34;;;;;;;7.45;3.30;;;;;;;8.09;100.00;101240.53;5052221;28;20021;-55
2022/12/25 08:19:59;;;;;;;8.30;2.95;;;;;;;8.08;100.00;101244.97;5042163;28;20116;-56
2022/12/25 08:22:24;;;;;;;6.45;2.92;;;;;;;8.07;100.00;101239.78;5051446;28;20119;-54
2022/12/25 08:24:50;;;;;;;8.77;2.90;;;;;;;8.08;100.00;101222.97;5050094;28;20453;-55
2022/12/25 08:27:15;;;;;;;6.90;3.22;;;;;;;8.07;100.00;101210.69;5051122;28;20482;-56
2022/12/25 08:29:42;;;;;;;6.10;3.35;;;;;;;8.06;100.00;101215.13;5043661;28;20136;-55
2022/12/25 08:32:08;;;;;;;6.85;3.40;;;;;;;8.07;100.00;101221.25;5052316;28;20028;-58
2022/12/25 08:34:33;;;;;;;10.48;3.53;;;;;;;8.07;100.00;101224.75;5051526;28;20406;-56
2022/12/25 08:36:58;;;;;;;10.27;3.83;;;;;;;8.06;100.00;101220.41;5051320;28;20048;-56
2022/12/25 08:39:23;;;;;;;8.57;3.40;;;;;;;8.06;100.00;101220.41;5046741;28;20116;-56
2022/12/25 08:41:49;;;;;;;10.10;3.28;;;;;;;8.06;100.00;101228.34;5046908;28;20036;-57
2022/12/25 08:44:14;;;;;;;8.55;3.75;;;;;;;8.07;100.00;101232.69;5052527;28;20021;-56
2022/12/25 08:46:39;;;;;;;9.57;3.80;;;;;;;8.07;100.00;101242.41;5049002;28;20040;-53
2022/12/25 08:49:05;;;;;;;7.88;3.53;;;;;;;8.07;100.00;101230.03;5048342;28;20090;-55
2022/12/25 08:51:30;;;;;;;7.75;3.50;;;;;;;8.07;100.00;101231.84;5049326;28;20044;-55
2022/12/25 08:53:58;;;;;;;6.78;3.22;;;;;;;8.05;100.00;101229.28;5042828;28;20410;-56
2022/12/25 08:56:24;;;;;;;6.35;2.88;;;;;;;8.05;100.00;101228.44;5045791;28;20063;-56
2022/12/25 08:58:49;;;;;;;7.65;3.53;;;;;;;8.03;100.00;101210.00;5046362;28;20654;-56
2022/12/25 09:01:15;;;;;;;9.77;3.70;;;;;;;8.03;100.00;101215.31;5048298;28;20037;-54
2022/12/25 09:03:41;;;;;;;7.28;3.35;;;;;;;8.02;100.00;101208.31;5047155;28;20107;-56
2022/12/25 09:06:09;;;;;;;9.43;3.70;;;;;;;8.02;100.00;101204.81;5046116;28;20076;-55
2022/12/25 09:08:36;;;;;;;11.65;3.70;;;;;;;8.02;100.00;101199.53;5036897;28;20467;-58
2022/12/25 09:11:03;;;;;;;10.80;3.92;;;;;;;8.01;100.00;101192.53;5042146;28;20036;-57
2022/12/25 09:13:28;;;;;;;8.40;3.80;;;;;;;7.99;100.00;101182.03;5045017;28;20033;-58
2022/12/25 09:15:53;;;;;;;8.13;3.90;;;;;;;8.00;100.00;101215.50;5047871;28;20094;-57
2022/12/25 09:18:19;;;;;;;9.43;4.00;;;;;;;8.01;100.00;101221.63;5049793;28;20017;-57
2022/12/25 09:20:44;;;;;;;8.95;3.70;;;;;;;8.01;100.00;101227.78;5049524;28;20068;-57
2022/12/25 09:23:09;;;;;;;9.57;4.35;;;;;;;8.02;100.00;101226.81;5049860;28;20021;-57
2022/12/25 09:25:34;;;;;;;11.40;3.78;;;;;;;8.03;100.00;101225.88;5048038;28;20051;-57
2022/12/25 09:28:00;;;;;;;10.13;4.38;;;;;;;8.01;100.00;101211.91;5049000;28;20082;-57
2022/12/25 09:30:25;;;;;;;8.52;4.07;;;;;;;8.02;100.00;101210.94;5050315;28;20080;-57
2022/12/25 09:32:50;;;;;;;9.90;3.97;;;;;;;8.02;100.00;101202.16;5049131;28;20017;-53
2022/12/25 09:35:17;;;;;;;10.43;3.95;;;;;;;8.02;100.00;101202.16;5050549;28;20108;-57
2022/12/25 09:37:43;;;;;;;9.13;4.10;;;;;;;8.01;100.00;101184.59;5044445;28;20041;-53
2022/12/25 09:40:20;;;;;;;11.23;4.30;;;;;;;8.02;100.00;101175.72;5049544;28;20036;-52
2022/12/25 09:42:47;;;;;;;9.23;3.90;;;;;;;8.01;100.00;101184.59;5044408;28;20040;-54
2022/12/25 09:45:26;;;;;;;7.72;3.92;;;;;;;8.02;100.00;101189.78;5050120;28;20041;-53
2022/12/25 09:47:55;;;;;;;9.32;4.03;;;;;;;8.02;100.00;101179.19;5048634;28;20029;-56
2022/12/25 09:50:42;;;;;;;10.10;4.07;;;;;;;8.03;100.00;101190.66;5047229;28;20120;-56
2022/12/25 09:53:31;;;;;;;7.43;4.20;;;;;;;8.05;100.00;101183.47;5043596;28;20088;-57
2022/12/25 09:56:12;;;;;;;11.90;4.60;;;;;;;8.04;100.00;101168.53;5047088;28;20640;-54
2022/12/25 09:58:38;;;;;;;8.93;4.78;;;;;;;8.03;100.00;101178.28;5050114;28;20035;-55
2022/12/25 10:01:28;;;;;;;10.30;4.57;;;;;;;8.05;100.00;101173.72;5048036;28;20033;-53
2022/12/25 10:04:06;;;;;;;11.57;4.57;;;;;;;8.04;100.00;101160.59;5046570;28;20057;-56
2022/12/25 10:07:09;;;;;;;9.93;4.30;;;;;;;8.06;100.00;101150.75;5048234;28;20483;-56
2022/12/25 10:09:56;;;;;;;8.02;4.38;;;;;;;8.07;100.00;101155.97;5040236;28;20045;-57
2022/12/25 10:12:32;;;;;;;10.10;4.70;;;;;;;8.08;100.00;101149.75;5039832;28;20076;-55
2022/12/25 10:15:15;;;;;;;12.57;4.93;;;;;;;8.10;100.00;101136.41;5027240;28;20476;-57
2022/12/25 10:18:03;;;;;;;5.47;4.20;;;;;;;8.10;100.00;101137.25;5049694;28;20029;-56
2022/12/25 10:20:51;;;;;;;9.60;4.45;;;;;;;8.11;100.00;101152.19;5046477;28;20052;-56
2022/12/25 10:23:39;;;;;;;11.32;5.00;;;;;;;8.13;100.00;101136.22;5045160;28;20082;-57
2022/12/25 10:26:22;;;;;;;10.23;5.00;;;;;;;8.14;100.00;101143.22;5047397;28;20040;-56
2022/12/25 10:29:20;;;;;;;9.88;4.88;;;;;;;8.14;100.00;101138.78;5037882;28;20487;-53
2022/12/25 10:31:48;;;;;;;10.05;5.00;;;;;;;8.13;100.00;101133.59;5029150;28;20137;-59
2022/12/25 10:34:15;;;;;;;10.85;4.75;;;;;;;8.14;100.00;101137.91;5031192;28;20048;-55
2022/12/25 10:36:43;;;;;;;10.00;4.90;;;;;;;8.13;100.00;101133.59;5029775;28;20739;-56
2022/12/25 10:39:24;;;;;;;11.77;5.10;;;;;;;8.17;100.00;101143.03;5028063;28;20036;-56
2022/12/25 10:42:41;;;;;;;11.52;5.45;;;;;;;8.19;100.00;101140.28;5034099;28;20070;-56
2022/12/25 10:45:08;;;;;;;9.30;5.18;;;;;;;8.14;100.00;101138.78;5031062;28;20638;-53
2022/12/25 10:47:37;;;;;;;8.68;4.93;;;;;;;8.15;100.00;101123.75;5031924;28;20018;-57
2022/12/25 10:50:24;;;;;;;11.75;5.85;;;;;;;8.20;100.00;101119.03;5036001;28;20031;-55
2022/12/25 10:52:59;;;;;;;11.82;6.38;;;;;;;8.20;100.00;101110.25;5034444;28;20072;-57
2022/12/25 10:55:25;;;;;;;10.88;8.30;;;;;;;8.20;100.00;101099.66;5035731;28;20086;-56
2022/12/25 10:57:50;;;;;;;18.90;13.50;;;;;;;8.20;100.00;101081.16;5036650;28;20447;-56
2022/12/25 11:00:24;;;;;;;20.55;18.30;;;;;;;8.23;100.00;101086.25;5037813;28;20035;-55
2022/12/25 11:02:49;;;;;;;20.15;17.45;;;;;;;8.22;100.00;101084.53;5030439;28;20466;-55
2022/12/25 11:05:32;;;;;;;26.92;23.00;;;;;;;8.24;100.00;101080.81;5037037;28;20025;-56
2022/12/25 11:08:01;;;;;;;17.25;12.68;;;;;;;8.23;100.00;101091.53;5036693;28;20554;-55
2022/12/25 11:10:30;;;;;;;14.43;8.00;;;;;;;8.22;100.00;101098.59;5037692;28;20523;-54
2022/12/25 11:12:56;;;;;;;13.23;7.38;;;;;;;8.22;100.00;101095.13;5035881;28;20068;-57
2022/12/25 11:15:34;;;;;;;12.20;6.80;;;;;;;8.23;100.00;101080.94;5035696;28;20057;-56
2022/12/25 11:17:59;;;;;;;11.07;8.80;;;;;;;8.25;100.00;101079.91;5039783;28;20491;-54
2022/12/25 11:20:25;;;;;;;9.38;6.30;;;;;;;8.26;100.00;101068.38;5035396;28;20031;-57
2022/12/25 11:22:50;;;;;;;11.27;6.78;;;;;;;8.27;100.00;101061.28;5036710;28;20495;-57
2022/12/25 11:25:25;;;;;;;11.38;8.68;;;;;;;8.27;100.00;101063.91;5037356;28;20029;-57
2022/12/25 11:28:02;;;;;;;12.18;7.38;;;;;;;8.29;100.00;101041.72;5036132;28;20031;-54
2022/12/25 11:30:30;;;;;;;12.55;6.70;;;;;;;8.28;100.00;101033.88;5034699;28;20025;-56
2022/12/25 11:32:58;;;;;;;10.55;7.57;;;;;;;8.27;100.00;101042.75;5040713;28;20112;-55
2022/12/25 11:35:29;;;;;;;11.82;7.47;;;;;;;8.26;100.00;101041.91;5038912;28;20032;-57
2022/12/25 11:37:54;;;;;;;9.23;6.32;;;;;;;8.26;100.00;101036.63;5033078;28;21427;-55
2022/12/25 11:40:24;;;;;;;10.70;6.85;;;;;;;8.24;100.00;101033.19;5040030;28;20021;-52
2022/12/25 11:43:06;;;;;;;11.77;7.40;;;;;;;8.26;100.00;101026.03;5043321;28;21526;-56
2022/12/25 11:45:37;;;;;;;10.98;7.53;;;;;;;8.27;100.00;101027.72;5035457;28;20033;-56
2022/12/25 11:48:17;;;;;;;13.52;7.75;;;;;;;8.27;100.00;101022.41;5040920;28;20033;-54
2022/12/25 11:50:49;;;;;;;12.15;7.55;;;;;;;8.28;100.00;101021.47;5038429;28;20037;-54
2022/12/25 11:53:27;;;;;;;16.27;9.27;;;;;;;8.27;100.00;101008.34;5036421;28;20086;-55
2022/12/25 11:56:04;;;;;;;22.65;13.40;;;;;;;8.28;100.00;101007.41;5035093;28;20071;-55
2022/12/25 11:58:39;;;;;;;16.42;11.73;;;;;;;8.27;100.00;101000.41;5035613;28;20319;-55
2022/12/25 12:01:14;;;;;;;20.15;13.35;;;;;;;8.25;100.00;101008.44;5035235;28;20056;-57
2022/12/25 12:03:41;;;;;;;16.83;12.52;;;;;;;8.28;100.00;101004.78;5032487;28;20039;-55
2022/12/25 12:06:24;;;;;;;14.63;9.00;;;;;;;8.29;100.00;101007.31;5033211;28;20108;-55
2022/12/25 12:08:55;;;;;;;13.40;8.60;;;;;;;8.26;100.00;101002.22;5027601;28;20033;-56
2022/12/25 12:11:34;;;;;;;12.43;8.30;;;;;;;8.29;100.00;101011.75;5026111;28;20114;-56
2022/12/25 12:14:21;;;;;;;12.65;8.45;;;;;;;8.30;100.00;101011.66;5027666;28;20490;-56
2022/12/25 12:16:47;;;;;;;10.68;7.55;;;;;;;8.28;100.00;101002.97;5040123;28;20122;-55
2022/12/25 12:19:27;;;;;;;11.15;8.38;;;;;;;8.29;100.00;100991.44;5034334;28;20461;-56
2022/12/25 12:21:58;;;;;;;11.35;7.97;;;;;;;8.29;100.00;100991.44;5035716;28;20059;-56
2022/12/25 12:24:29;;;;;;;12.10;9.00;;;;;;;8.29;100.00;100996.72;5040159;28;20467;-56
2022/12/25 12:27:01;;;;;;;13.95;9.45;;;;;;;8.28;100.00;100984.44;5041763;28;20037;-57
2022/12/25 12:29:43;;;;;;;15.88;10.43;;;;;;;8.33;100.00;100992.09;5041797;28;20029;-57
2022/12/25 12:32:39;;;;;;;23.48;14.52;;;;;;;8.35;100.00;100987.53;5041848;28;20039;-56
2022/12/25 12:35:21;;;;;;;20.77;15.52;;;;;;;8.34;100.00;100976.09;5036380;28;20025;-57
2022/12/25 12:37:53;;;;;;;20.60;14.70;;;;;;;8.37;100.00;100963.63;5041022;28;20216;-56
2022/12/25 12:40:50;;;;;;;27.83;22.75;;;;;;;8.39;100.00;100953.78;5042020;28;20021;-55
2022/12/25 12:43:26;;;;;;;20.38;17.55;;;;;;;8.38;100.00;100965.34;5038638;28;20111;-54
2022/12/25 12:46:00;;;;;;;15.98;12.00;;;;;;;8.37;100.00;100968.91;5032152;28;20481;-56
2022/12/25 12:48:28;;;;;;;13.30;11.07;;;;;;;8.34;100.00;100968.16;5031974;28;20041;-57
2022/12/25 12:51:11;;;;;;;13.82;10.43;;;;;;;8.39;100.00;100964.34;5032611;28;20525;-55
2022/12/25 12:53:38;;;;;;;17.35;11.20;;;;;;;8.40;100.00;100969.56;5035685;28;20036;-56
2022/12/25 12:56:19;;;;;;;16.90;11.52;;;;;;;8.42;100.00;100970.28;5039870;28;20056;-56
2022/12/25 12:58:48;;;;;;;16.42;12.15;;;;;;;8.42;100.00;100958.88;5034004;28;20055;-57
2022/12/25 13:01:26;;;;;;;;;;;;;;;8.48;100.00;100961.16;5034448;28;20507;-56
2022/12/25 13:04:16;;;;;;;14.15;11.63;;;;;;;8.46;100.00;100948.03;5035995;28;20034;-57
2022/12/25 13:07:20;;;;;;;16.95;11.80;;;;;;;8.46;100.00;100958.59;5040335;28;20052;-54
2022/12/25 13:09:48;;;;;;;17.17;12.68;;;;;;;8.44;100.00;100949.94;5042638;28;20036;-53
2022/12/25 13:12:21;;;;;;;17.92;12.88;;;;;;;8.46;100.00;100931.25;5035491;28;20048;-57